Het weer levert geen direct gevaar op.    Er zijn geen waarschuwingen afgegeven.

Regen radar Meer informatie rain snow radar


Bezoek onze andere website:

Template documentation
and downloads

And another site

EUWEATHER.EU


U vindt ons ook hier:

Het Weer Aktueel

UK Metoffice

European Weather Network

WeatherCloud

Weather Underground

Benelux Weer Netwerk

AWEKAS

WeatherlinkIP

HAMweather, WeatherForYou, PWS Weather

Wetter.com



METAR rapporten vliegvelden

   
EBAW - Antwerp
Gewijzigd: 14-05-2021 01:50
Mist, Helder  
Mist, Helder  
   Wind: Zuiden 1.9 km/h
Wind: Zuiden 1.9 km/h
Temperatuur: 6°C
Dauwpunt: 4°C
Vochtigheid: 87%
Barometer: 1007 hPa
Bewolking: Helder
Zicht: 1 km
Bewolking: Helder
EBAW 132350Z AUTO 19001KT 0550 R11/1800D R29/0650D FG NCD 06/04 Q1007
EBLG - Li├Ęge
Gewijzigd: 14-05-2021 01:50
Helder  
Helder  
   Wind: ZO 9.3 km/h
Wind: ZO 9.3 km/h
Temperatuur: 9°C
Voelt als: 8°C
Dauwpunt: 5°C
Vochtigheid: 76%
Barometer: 1007 hPa
Zicht: meer dan 10 km
Bewolking: Helder
EBLG 132350Z 14005KT CAVOK 09/05 Q1007 NOSIG
EBCV - Mons/Bergen
Gewijzigd: 14-05-2021 01:55
Gedeeltelijk bewolkt  
Gedeeltelijk bewolkt  
   Wind: OZO 7.4 km/h
Wind: OZO 7.4 km/h
Temperatuur: 7°C
Voelt als: 6°C
Dauwpunt: 5°C
Vochtigheid: 87%
Barometer: 1007 hPa
Bewolking: Gedeeltelijk bewolkt
Zicht: meer dan 10 km
Bewolking: Licht bewolkt 4700 ft,
Gedeeltelijk bewolkt 6400 ft
EBCV 132355Z AUTO 11004KT 9999 FEW047/// SCT064/// 07/05 Q1007 BLU
EHBK - Maastricht
Gewijzigd: 14-05-2021 01:55
Nevel, Helder  
Nevel, Helder  
   Wind: Zuiden 7.4 km/h
Wind: Zuiden 7.4 km/h
Temperatuur: 7°C
Voelt als: 6°C
Dauwpunt: 7°C
Vochtigheid: 100%
Barometer: 1007 hPa
Bewolking: Helder
Zicht: 3 km
Bewolking: Helder
EHBK 132355Z AUTO 17004KT 2700 BR NCD 07/07 Q1007
ELLX - Luxemburg
Gewijzigd: 14-05-2021 01:50
Licht bewolkt  
Licht bewolkt  
   Wind: ZW 11.1 km/h
Wind: ZW 11.1 km/h
Temperatuur: 7°C
Voelt als: 5°C
Dauwpunt: 5°C
Vochtigheid: 87%
Barometer: 1008 hPa
Bewolking: Licht bewolkt
Zicht: meer dan 10 km
Bewolking: Licht bewolkt 3300 ft
ELLX 132350Z 23006KT 9999 FEW033 07/05 Q1008 NOSIG
EBOS - Oostende
Gewijzigd: 14-05-2021 01:50
Helder  
Helder  
   Wind: ONO 3.7 km/h
Wind: ONO 3.7 km/h
Temperatuur: 5°C
Dauwpunt: 4°C
Vochtigheid: 93%
Barometer: 1007 hPa
Zicht: meer dan 10 km
Bewolking: Helder
EBOS 132350Z 06002KT CAVOK 05/04 Q1007 NOSIG

Script ontwikkeld door  Saratoga-weather.org Aangepast voor de template door  Weerstation Leuven

Apparatuur in gebruik:

Weerstation
Davis VP2

Weerprogramma
Meteobridge

Weercomputer
Asus WL -330N3G

Webleverancier
Onecom

Davis VP2

Meteobridge

Asus WL -330N3G

Onecom